createdAt,value
2017-03-20T00:00:07.512Z,10.04
2017-03-20T00:00:48.095Z,9.97
2017-03-20T00:01:28.713Z,9.94
2017-03-20T00:02:09.384Z,10.04
2017-03-20T00:02:49.958Z,10.04
2017-03-20T00:03:30.587Z,10.04
2017-03-20T00:04:11.163Z,10.01
2017-03-20T00:04:51.826Z,10.04
2017-03-20T00:05:32.498Z,10.05
2017-03-20T00:06:13.081Z,9.98
2017-03-20T00:06:53.686Z,10.02
2017-03-20T00:07:34.261Z,9.98
2017-03-20T00:08:14.841Z,9.95
2017-03-20T00:08:55.403Z,9.97
2017-03-20T00:09:35.970Z,9.94
2017-03-20T00:10:16.586Z,9.99
2017-03-20T00:10:57.157Z,9.94
2017-03-20T00:11:37.716Z,9.97
2017-03-20T00:12:18.301Z,10.01
2017-03-20T00:12:58.879Z,9.95
2017-03-20T00:13:39.517Z,9.98
2017-03-20T00:14:20.108Z,9.94
2017-03-20T00:15:00.691Z,9.95
2017-03-20T00:15:41.312Z,9.95
2017-03-20T00:16:21.889Z,9.99
2017-03-20T00:17:02.435Z,10.04
2017-03-20T00:17:43.056Z,9.95
2017-03-20T00:18:23.630Z,10.04
2017-03-20T00:19:04.183Z,10.01
2017-03-20T00:19:44.842Z,9.97
2017-03-20T00:20:25.359Z,9.98
2017-03-20T00:21:05.922Z,9.95
2017-03-20T00:21:46.587Z,9.95
2017-03-20T00:22:27.134Z,10.01
2017-03-20T00:23:07.740Z,10.01
2017-03-20T00:23:48.334Z,10.02
2017-03-20T00:24:28.927Z,10.02
2017-03-20T00:25:09.519Z,10.07
2017-03-20T00:25:50.084Z,9.95
2017-03-20T00:26:30.729Z,9.97
2017-03-20T00:27:11.285Z,9.98
2017-03-20T00:27:51.860Z,10.07
2017-03-20T00:28:32.453Z,9.98
2017-03-20T00:29:13.023Z,9.95
2017-03-20T00:29:53.599Z,10.02
2017-03-20T00:30:34.181Z,10.02
2017-03-20T00:31:14.763Z,9.95
2017-03-20T00:31:55.354Z,10.04
2017-03-20T00:32:35.958Z,9.97
2017-03-20T00:33:16.516Z,9.97
2017-03-20T00:33:57.098Z,10.01
2017-03-20T00:34:37.660Z,9.99
2017-03-20T00:35:18.251Z,9.97
2017-03-20T00:35:58.835Z,10.01
2017-03-20T00:36:39.419Z,10.04
2017-03-20T00:37:20.007Z,9.98
2017-03-20T00:38:00.595Z,10.01
2017-03-20T00:38:41.174Z,10.05
2017-03-20T00:39:21.756Z,10.02
2017-03-20T00:40:02.330Z,10.07
2017-03-20T00:40:42.917Z,10.01
2017-03-20T00:41:23.503Z,10.02
2017-03-20T00:42:04.121Z,10.04
2017-03-20T00:42:44.697Z,9.98
2017-03-20T00:43:25.295Z,9.97
2017-03-20T00:44:05.886Z,10.05
2017-03-20T00:44:46.477Z,10.02
2017-03-20T00:45:27.071Z,10.04
2017-03-20T00:46:07.660Z,9.95
2017-03-20T00:46:48.260Z,9.99
2017-03-20T00:47:28.849Z,9.94
2017-03-20T00:48:09.465Z,9.94
2017-03-20T00:48:50.027Z,9.98
2017-03-20T00:49:30.600Z,10.05
2017-03-20T00:50:11.190Z,9.99
2017-03-20T00:50:51.774Z,10.02
2017-03-20T00:51:32.358Z,10.02
2017-03-20T00:52:12.941Z,9.98
2017-03-20T00:52:53.523Z,10.02
2017-03-20T00:53:34.103Z,9.99
2017-03-20T00:54:14.733Z,9.97
2017-03-20T00:54:55.319Z,10.02
2017-03-20T00:55:35.880Z,9.97
2017-03-20T00:56:16.504Z,9.97
2017-03-20T00:56:57.108Z,10.02
2017-03-20T00:57:37.690Z,10.05
2017-03-20T00:58:18.260Z,9.99
2017-03-20T00:58:58.853Z,10.07
2017-03-20T00:59:39.427Z,10.05
2017-03-20T01:00:20.018Z,10.02
2017-03-20T01:01:00.630Z,10.05
2017-03-20T01:01:41.227Z,9.98
2017-03-20T01:02:21.792Z,9.97
2017-03-20T01:03:02.380Z,9.98
2017-03-20T01:03:42.994Z,10.04
2017-03-20T01:04:23.561Z,10.02
2017-03-20T01:05:04.156Z,10.05
2017-03-20T01:05:44.724Z,9.99
2017-03-20T01:06:25.312Z,9.97
2017-03-20T01:07:05.888Z,10.01
2017-03-20T01:07:46.464Z,9.97
2017-03-20T01:08:27.045Z,10.02
2017-03-20T01:09:07.657Z,10.09
2017-03-20T01:09:48.234Z,10.01
2017-03-20T01:10:28.808Z,9.99
2017-03-20T01:11:09.374Z,9.99
2017-03-20T01:11:49.975Z,10.05
2017-03-20T01:12:30.560Z,10.04
2017-03-20T01:13:11.161Z,9.99
2017-03-20T01:13:51.739Z,10.02
2017-03-20T01:14:32.323Z,9.98
2017-03-20T01:15:12.904Z,9.99
2017-03-20T01:15:53.521Z,10.02
2017-03-20T01:16:34.076Z,9.97
2017-03-20T01:17:14.661Z,10.01
2017-03-20T01:17:55.249Z,10.01
2017-03-20T01:18:35.847Z,10.04
2017-03-20T01:19:16.421Z,9.98
2017-03-20T01:19:57.006Z,10.04
2017-03-20T01:20:37.586Z,9.94
2017-03-20T01:21:18.184Z,10.04
2017-03-20T01:21:58.787Z,10.05
2017-03-20T01:22:39.388Z,10.05
2017-03-20T01:23:20.005Z,9.92
2017-03-20T01:24:00.686Z,10.02
2017-03-20T01:24:41.287Z,9.98
2017-03-20T01:25:21.877Z,10.02
2017-03-20T01:26:02.480Z,9.99
2017-03-20T01:26:43.065Z,9.98
2017-03-20T01:27:23.691Z,9.97
2017-03-20T01:28:04.302Z,9.99
2017-03-20T01:28:44.872Z,10.04
2017-03-20T01:29:25.481Z,10.05
2017-03-20T01:30:06.064Z,10.07
2017-03-20T01:30:46.719Z,10.04
2017-03-20T01:31:27.300Z,9.98
2017-03-20T01:32:07.907Z,10.05
2017-03-20T01:32:48.477Z,9.95
2017-03-20T01:33:29.109Z,10.01
2017-03-20T01:34:09.667Z,9.99
2017-03-20T01:34:50.249Z,10.02
2017-03-20T01:35:30.822Z,10.05
2017-03-20T01:36:11.394Z,10.05
2017-03-20T01:36:51.963Z,9.97
2017-03-20T01:37:32.535Z,10.05
2017-03-20T01:38:13.132Z,10.04
2017-03-20T01:38:53.728Z,10.02
2017-03-20T01:39:34.310Z,10.01
2017-03-20T01:40:14.874Z,10.02
2017-03-20T01:40:55.466Z,10.01
2017-03-20T01:41:36.052Z,9.98
2017-03-20T01:42:16.703Z,9.98
2017-03-20T01:42:57.280Z,10.1
2017-03-20T01:43:37.872Z,9.97
2017-03-20T01:44:18.437Z,10.02
2017-03-20T01:44:59.007Z,10.01
2017-03-20T01:45:39.585Z,10.05
2017-03-20T01:46:20.190Z,9.97
2017-03-20T01:47:00.770Z,9.99
2017-03-20T01:47:41.346Z,9.97
2017-03-20T01:48:21.926Z,10.05
2017-03-20T01:49:02.549Z,9.97
2017-03-20T01:49:43.135Z,9.99
2017-03-20T01:50:23.699Z,10.04
2017-03-20T01:51:04.270Z,10.05
2017-03-20T01:51:44.874Z,9.99
2017-03-20T01:52:25.455Z,10.02
2017-03-20T01:53:06.030Z,9.97
2017-03-20T01:53:46.607Z,10.01
2017-03-20T01:54:27.202Z,10.04
2017-03-20T01:55:07.806Z,9.94
2017-03-20T01:55:48.453Z,9.95
2017-03-20T01:56:28.983Z,10.05
2017-03-20T01:57:09.594Z,10.02
2017-03-20T01:57:50.203Z,10.01
2017-03-20T01:58:30.805Z,10.09
2017-03-20T01:59:11.369Z,10.04
2017-03-20T01:59:51.967Z,10.07
2017-03-20T02:00:32.553Z,9.98
2017-03-20T02:01:13.114Z,10.05
2017-03-20T02:01:53.771Z,10.1
2017-03-20T02:02:34.359Z,10.02
2017-03-20T02:03:14.935Z,10.01
2017-03-20T02:03:55.530Z,9.98
2017-03-20T02:04:36.091Z,10.04
2017-03-20T02:05:16.664Z,10.04
2017-03-20T02:05:57.250Z,10.04
2017-03-20T02:06:37.832Z,10.04
2017-03-20T02:07:18.416Z,9.97
2017-03-20T02:07:59.017Z,9.98
2017-03-20T02:08:39.583Z,10.04
2017-03-20T02:09:20.276Z,10.07
2017-03-20T02:10:00.838Z,9.97
2017-03-20T02:10:41.438Z,9.98
2017-03-20T02:11:22.072Z,10.09
2017-03-20T02:12:02.661Z,9.97
2017-03-20T02:12:43.310Z,10.01
2017-03-20T02:13:23.945Z,10.05
2017-03-20T02:14:04.535Z,9.94
2017-03-20T02:14:45.149Z,10.01
2017-03-20T02:15:25.732Z,10.02
2017-03-20T02:16:06.308Z,10.02
2017-03-20T02:16:46.890Z,10.04
2017-03-20T02:17:27.501Z,10.04
2017-03-20T02:18:08.106Z,10.04
2017-03-20T02:18:48.702Z,9.97
2017-03-20T02:19:29.394Z,9.94
2017-03-20T02:20:09.964Z,9.94
2017-03-20T02:20:50.544Z,10.04
2017-03-20T02:21:31.192Z,9.98
2017-03-20T02:22:11.813Z,9.97
2017-03-20T02:22:52.372Z,9.98
2017-03-20T02:23:32.948Z,9.98
2017-03-20T02:24:13.589Z,9.94
2017-03-20T02:24:54.154Z,10.05
2017-03-20T02:25:34.720Z,10.02
2017-03-20T02:26:15.332Z,10.01
2017-03-20T02:26:56.029Z,10.01
2017-03-20T02:27:36.603Z,10.02
2017-03-20T02:28:17.188Z,9.99
2017-03-20T02:28:57.735Z,9.94
2017-03-20T02:29:38.325Z,9.92
2017-03-20T02:30:18.927Z,9.99
2017-03-20T02:30:59.516Z,9.97
2017-03-20T02:31:40.080Z,10.01
2017-03-20T02:32:20.689Z,10.01
2017-03-20T02:33:01.286Z,9.98
2017-03-20T02:33:41.924Z,9.99
2017-03-20T02:34:22.535Z,9.94
2017-03-20T02:35:03.181Z,9.97
2017-03-20T02:35:43.812Z,9.95
2017-03-20T02:36:24.421Z,9.97
2017-03-20T02:37:05.079Z,9.95
2017-03-20T02:37:45.815Z,9.94
2017-03-20T02:38:26.399Z,10.07
2017-03-20T02:39:06.975Z,9.97
2017-03-20T02:39:47.561Z,10.09
2017-03-20T02:40:28.139Z,10.04
2017-03-20T02:41:08.722Z,10.07
2017-03-20T02:41:49.319Z,10.05
2017-03-20T02:42:29.887Z,10.07
2017-03-20T02:43:10.536Z,10.04
2017-03-20T02:43:51.068Z,10.13
2017-03-20T02:44:31.646Z,10.13
2017-03-20T02:45:12.210Z,10.12
2017-03-20T02:45:52.822Z,10.04
2017-03-20T02:46:33.423Z,10.1
2017-03-20T02:47:13.994Z,10.05
2017-03-20T02:47:54.565Z,10.15
2017-03-20T02:48:35.164Z,10.1
2017-03-20T02:49:15.723Z,10.15
2017-03-20T02:49:56.312Z,10.15
2017-03-20T02:50:36.896Z,10.16
2017-03-20T02:51:17.478Z,10.15
2017-03-20T02:51:58.069Z,10.12
2017-03-20T02:52:38.638Z,10.13
2017-03-20T02:53:19.218Z,10.15
2017-03-20T02:53:59.784Z,10.17
2017-03-20T02:54:40.374Z,10.01
2017-03-20T02:55:20.949Z,10.13
2017-03-20T02:56:01.535Z,10.09
2017-03-20T02:56:42.130Z,10.07
2017-03-20T02:57:22.699Z,10.15
2017-03-20T02:58:03.276Z,10.12
2017-03-20T02:58:43.869Z,10.15
2017-03-20T02:59:24.448Z,10.13
2017-03-20T03:00:05.023Z,10.09
2017-03-20T03:00:45.614Z,10.07
2017-03-20T03:01:26.203Z,10.12
2017-03-20T03:02:06.840Z,10.13
2017-03-20T03:02:47.410Z,10.02
2017-03-20T03:03:28.012Z,10.07
2017-03-20T03:04:08.634Z,10.04
2017-03-20T03:04:49.217Z,10.15
2017-03-20T03:05:29.803Z,10.16
2017-03-20T03:06:10.385Z,10.09
2017-03-20T03:06:51.076Z,10.13
2017-03-20T03:07:31.634Z,10.07
2017-03-20T03:08:12.209Z,10.15
2017-03-20T03:08:52.868Z,10.16
2017-03-20T03:09:33.509Z,10.16
2017-03-20T03:10:14.094Z,10.17
2017-03-20T03:10:54.785Z,10.17
2017-03-20T03:11:35.347Z,10.17
2017-03-20T03:12:15.983Z,10.15
2017-03-20T03:12:56.566Z,10.1
2017-03-20T03:13:37.161Z,10.17
2017-03-20T03:14:17.794Z,10.16
2017-03-20T03:14:58.380Z,10.17
2017-03-20T03:15:38.960Z,10.17
2017-03-20T03:16:19.520Z,10.2
2017-03-20T03:17:00.086Z,10.13
2017-03-20T03:17:40.668Z,10.19
2017-03-20T03:18:21.284Z,10.13
2017-03-20T03:19:01.847Z,10.17
2017-03-20T03:19:42.441Z,10.15
2017-03-20T03:20:23.031Z,10.23
2017-03-20T03:21:03.654Z,10.12
2017-03-20T03:21:44.253Z,10.15
2017-03-20T03:22:24.799Z,10.15
2017-03-20T03:23:05.381Z,10.12
2017-03-20T03:23:46.014Z,10.16
2017-03-20T03:24:26.614Z,10.19
2017-03-20T03:25:07.206Z,10.13
2017-03-20T03:25:47.838Z,10.09
2017-03-20T03:26:28.400Z,10.19
2017-03-20T03:27:08.981Z,10.17
2017-03-20T03:27:49.561Z,10.07
2017-03-20T03:28:30.125Z,10.13
2017-03-20T03:29:10.697Z,10.13
2017-03-20T03:29:51.285Z,10.23
2017-03-20T03:30:31.880Z,10.13
2017-03-20T03:31:12.536Z,10.13
2017-03-20T03:31:53.120Z,10.16
2017-03-20T03:32:33.714Z,10.12
2017-03-20T03:33:14.313Z,10.17
2017-03-20T03:33:54.905Z,10.16
2017-03-20T03:34:35.495Z,10.16
2017-03-20T03:35:16.114Z,10.07
2017-03-20T03:35:56.689Z,10.09
2017-03-20T03:36:37.268Z,10.17
2017-03-20T03:37:17.842Z,10.19
2017-03-20T03:37:58.463Z,10.2
2017-03-20T03:38:39.024Z,10.19
2017-03-20T03:39:19.599Z,10.19
2017-03-20T03:40:00.177Z,10.16
2017-03-20T03:40:40.765Z,10.17
2017-03-20T03:41:21.343Z,10.09
2017-03-20T03:42:01.960Z,10.17
2017-03-20T03:42:42.538Z,10.19
2017-03-20T03:43:23.153Z,10.2
2017-03-20T03:44:03.754Z,10.16
2017-03-20T03:44:44.351Z,10.15
2017-03-20T03:45:24.905Z,10.15
2017-03-20T03:46:05.470Z,10.17
2017-03-20T03:46:46.042Z,10.15
2017-03-20T03:47:26.618Z,10.1
2017-03-20T03:48:07.218Z,10.15
2017-03-20T03:48:47.818Z,10.17
2017-03-20T03:49:28.457Z,10.16
2017-03-20T03:50:09.023Z,10.17
2017-03-20T03:50:49.597Z,10.13
2017-03-20T03:51:30.196Z,10.15
2017-03-20T03:52:10.796Z,10.2
2017-03-20T03:52:51.396Z,10.22
2017-03-20T03:53:31.966Z,10.23
2017-03-20T03:54:12.558Z,10.15
2017-03-20T03:54:53.153Z,10.2
2017-03-20T03:55:33.744Z,10.2
2017-03-20T03:56:14.322Z,10.15
2017-03-20T03:56:54.950Z,10.15
2017-03-20T03:57:35.552Z,10.19
2017-03-20T03:58:16.161Z,10.17
2017-03-20T03:58:56.757Z,10.17
2017-03-20T03:59:37.354Z,10.2
2017-03-20T04:00:17.948Z,10.13
2017-03-20T04:00:58.522Z,10.15
2017-03-20T04:01:39.174Z,10.15
2017-03-20T04:02:19.757Z,10.12
2017-03-20T04:03:00.370Z,10.15
2017-03-20T04:03:40.946Z,10.13
2017-03-20T04:04:21.534Z,10.04
2017-03-20T04:05:02.122Z,10.12
2017-03-20T04:05:42.719Z,10.1
2017-03-20T04:06:23.320Z,10.13
2017-03-20T04:07:03.893Z,10.19
2017-03-20T04:07:44.461Z,10.22
2017-03-20T04:08:25.041Z,10.19
2017-03-20T04:09:05.621Z,10.1
2017-03-20T04:09:46.202Z,10.2
2017-03-20T04:10:26.860Z,10.13
2017-03-20T04:11:07.458Z,10.22
2017-03-20T04:11:48.043Z,10.13
2017-03-20T04:12:28.663Z,10.2
2017-03-20T04:13:09.246Z,10.15
2017-03-20T04:13:49.828Z,10.16
2017-03-20T04:14:30.417Z,10.23
2017-03-20T04:15:11.022Z,10.17
2017-03-20T04:15:51.606Z,10.22
2017-03-20T04:16:32.199Z,10.2
2017-03-20T04:17:12.783Z,10.2
2017-03-20T04:17:53.393Z,10.22
2017-03-20T04:18:33.989Z,10.15
2017-03-20T04:19:14.560Z,10.15
2017-03-20T04:19:55.129Z,10.15
2017-03-20T04:20:35.714Z,10.23
2017-03-20T04:21:16.277Z,10.19
2017-03-20T04:21:56.837Z,10.1
2017-03-20T04:22:37.413Z,10.12
2017-03-20T04:23:18.016Z,10.16
2017-03-20T04:23:58.602Z,10.1
2017-03-20T04:24:39.272Z,10.15
2017-03-20T04:25:19.862Z,10.17
2017-03-20T04:26:00.470Z,10.1
2017-03-20T04:26:41.085Z,10.19
2017-03-20T04:27:21.701Z,10.1
2017-03-20T04:28:02.337Z,10.2
2017-03-20T04:28:43.020Z,10.19
2017-03-20T04:29:23.608Z,10.12
2017-03-20T04:30:04.200Z,10.23
2017-03-20T04:30:44.813Z,10.2
2017-03-20T04:31:25.405Z,10.15
2017-03-20T04:32:06.026Z,10.25
2017-03-20T04:32:46.617Z,10.16
2017-03-20T04:33:27.272Z,10.19
2017-03-20T04:34:07.890Z,10.15
2017-03-20T04:34:48.521Z,10.1
2017-03-20T04:35:29.114Z,10.23
2017-03-20T04:36:09.714Z,10.2
2017-03-20T04:36:50.310Z,10.16
2017-03-20T04:37:30.875Z,10.23
2017-03-20T04:38:11.486Z,10.2
2017-03-20T04:38:52.061Z,10.19
2017-03-20T04:39:32.646Z,10.2
2017-03-20T04:40:13.256Z,10.1
2017-03-20T04:40:53.929Z,10.16
2017-03-20T04:41:34.547Z,10.1
2017-03-20T04:42:15.160Z,10.07
2017-03-20T04:42:55.747Z,10.17
2017-03-20T04:43:36.318Z,10.22
2017-03-20T04:44:16.882Z,10.19
2017-03-20T04:44:57.502Z,10.17
2017-03-20T04:45:38.122Z,10.16
2017-03-20T04:46:18.725Z,10.12
2017-03-20T04:46:59.321Z,10.15
2017-03-20T04:47:39.909Z,10.05
2017-03-20T04:48:20.517Z,10.15
2017-03-20T04:49:01.091Z,10.12
2017-03-20T04:49:41.699Z,10.05
2017-03-20T04:50:22.315Z,10.12
2017-03-20T04:51:02.889Z,10.1
2017-03-20T04:51:43.454Z,10.1
2017-03-20T04:52:24.044Z,10.13
2017-03-20T04:53:04.666Z,10.1
2017-03-20T04:53:45.277Z,10.13
2017-03-20T04:54:25.957Z,10.09
2017-03-20T04:55:06.594Z,10.17
2017-03-20T04:55:47.204Z,10.05
2017-03-20T04:56:27.790Z,10.15
2017-03-20T04:57:08.383Z,10.07
2017-03-20T04:57:49.006Z,10.15
2017-03-20T04:58:29.656Z,10.15
2017-03-20T04:59:10.247Z,10.1
2017-03-20T04:59:50.778Z,10.19
2017-03-20T05:00:31.528Z,10.1
2017-03-20T05:01:11.936Z,10.07
2017-03-20T05:01:52.580Z,10.16
2017-03-20T05:02:33.160Z,10.16
2017-03-20T05:03:13.742Z,10.17
2017-03-20T05:03:54.367Z,10.15
2017-03-20T05:04:34.952Z,10.15
2017-03-20T05:05:15.597Z,10.15
2017-03-20T05:05:56.161Z,10.12
2017-03-20T05:06:36.718Z,10.15
2017-03-20T05:07:17.281Z,10.16
2017-03-20T05:07:57.854Z,10.19
2017-03-20T05:08:38.485Z,10.16
2017-03-20T05:09:19.062Z,10.2
2017-03-20T05:09:59.677Z,10.19
2017-03-20T05:10:40.344Z,10.23
2017-03-20T05:11:20.940Z,10.2
2017-03-20T05:12:01.508Z,10.1
2017-03-20T05:12:42.143Z,10.23
2017-03-20T05:13:22.736Z,10.12
2017-03-20T05:14:03.351Z,10.16
2017-03-20T05:14:43.937Z,10.09
2017-03-20T05:15:24.562Z,10.13
2017-03-20T05:16:05.118Z,10.15
2017-03-20T05:16:45.710Z,10.22
2017-03-20T05:17:26.278Z,10.1
2017-03-20T05:18:06.875Z,10.2
2017-03-20T05:18:47.469Z,10.12
2017-03-20T05:19:28.056Z,10.2
2017-03-20T05:20:08.655Z,10.17
2017-03-20T05:20:49.258Z,10.23
2017-03-20T05:21:29.833Z,10.1
2017-03-20T05:22:10.420Z,10.2
2017-03-20T05:22:51.052Z,10.19
2017-03-20T05:23:31.672Z,10.26
2017-03-20T05:24:12.249Z,10.19
2017-03-20T05:24:52.814Z,10.19
2017-03-20T05:25:33.477Z,10.2
2017-03-20T05:26:14.047Z,10.26
2017-03-20T05:26:54.631Z,10.2
2017-03-20T05:27:35.208Z,10.26
2017-03-20T05:28:15.778Z,10.22
2017-03-20T05:28:56.365Z,10.17
2017-03-20T05:29:36.943Z,10.2
2017-03-20T05:30:17.547Z,10.19
2017-03-20T05:30:58.124Z,10.23
2017-03-20T05:31:38.720Z,10.35
2017-03-20T05:32:19.301Z,10.31
2017-03-20T05:32:59.901Z,10.33
2017-03-20T05:33:40.681Z,10.35
2017-03-20T05:34:21.303Z,10.33
2017-03-20T05:35:01.877Z,10.28
2017-03-20T05:35:42.456Z,10.28
2017-03-20T05:36:23.111Z,10.28
2017-03-20T05:37:03.673Z,10.26
2017-03-20T05:37:44.240Z,10.33
2017-03-20T05:38:24.834Z,10.17
2017-03-20T05:39:05.434Z,10.31
2017-03-20T05:39:46.086Z,10.26
2017-03-20T05:40:26.644Z,10.23
2017-03-20T05:41:07.270Z,10.23
2017-03-20T05:41:47.813Z,10.3
2017-03-20T05:42:28.372Z,10.3
2017-03-20T05:43:09.836Z,10.2
2017-03-20T05:43:50.413Z,10.26
2017-03-20T05:44:30.990Z,10.19
2017-03-20T05:45:11.574Z,10.26
2017-03-20T05:45:52.147Z,10.34
2017-03-20T05:46:32.712Z,10.25
2017-03-20T05:47:13.284Z,10.25
2017-03-20T05:47:53.854Z,10.26
2017-03-20T05:48:34.435Z,10.3
2017-03-20T05:49:15.012Z,10.26
2017-03-20T05:49:55.609Z,10.2
2017-03-20T05:50:36.216Z,10.33
2017-03-20T05:51:16.837Z,10.2
2017-03-20T05:51:57.661Z,10.37
2017-03-20T05:52:38.369Z,10.34
2017-03-20T05:53:19.042Z,10.34
2017-03-20T05:53:59.656Z,10.34
2017-03-20T05:54:40.463Z,10.33
2017-03-20T05:55:21.219Z,10.2
2017-03-20T05:56:01.931Z,10.28
2017-03-20T05:56:42.573Z,10.23
2017-03-20T05:57:23.271Z,10.3
2017-03-20T05:58:03.887Z,10.35
2017-03-20T05:58:44.597Z,10.3
2017-03-20T05:59:25.502Z,10.42
2017-03-20T06:00:06.163Z,10.35
2017-03-20T06:00:46.812Z,10.49
2017-03-20T06:01:27.453Z,10.28
2017-03-20T06:02:08.123Z,10.31
2017-03-20T06:02:48.902Z,10.34
2017-03-20T06:03:29.737Z,10.31
2017-03-20T06:04:10.433Z,10.4
2017-03-20T06:04:51.136Z,10.31
2017-03-20T06:05:31.782Z,10.4
2017-03-20T06:06:12.635Z,10.4
2017-03-20T06:06:53.398Z,10.34
2017-03-20T06:07:34.178Z,10.34
2017-03-20T06:08:14.813Z,10.35
2017-03-20T06:08:55.442Z,10.34
2017-03-20T06:09:36.168Z,10.28
2017-03-20T06:10:17.108Z,10.37
2017-03-20T06:10:57.956Z,10.34
2017-03-20T06:11:38.768Z,10.42
2017-03-20T06:12:19.361Z,10.35
2017-03-20T06:13:00.057Z,10.22
2017-03-20T06:13:40.783Z,10.28
2017-03-20T06:14:21.417Z,10.37
2017-03-20T06:15:02.090Z,10.28
2017-03-20T06:15:42.854Z,10.28
2017-03-20T06:16:23.609Z,10.3
2017-03-20T06:17:04.467Z,10.3
2017-03-20T06:17:45.146Z,10.25
2017-03-20T06:18:25.895Z,10.28
2017-03-20T06:19:06.606Z,10.3
2017-03-20T06:19:47.381Z,10.3
2017-03-20T06:20:28.083Z,10.23
2017-03-20T06:21:08.790Z,10.3
2017-03-20T06:21:50.244Z,10.3
2017-03-20T06:22:30.897Z,10.33
2017-03-20T06:23:11.542Z,10.3
2017-03-20T06:23:52.345Z,10.33
2017-03-20T06:24:33.046Z,10.33
2017-03-20T06:25:13.806Z,10.34
2017-03-20T06:25:54.499Z,10.37
2017-03-20T06:26:35.243Z,10.3
2017-03-20T06:27:15.876Z,10.3
2017-03-20T06:27:56.571Z,10.25
2017-03-20T06:28:37.341Z,10.34
2017-03-20T06:29:18.064Z,10.33
2017-03-20T06:29:58.794Z,10.33
2017-03-20T06:30:39.547Z,10.31
2017-03-20T06:31:20.164Z,10.31
2017-03-20T06:32:00.940Z,10.34
2017-03-20T06:32:41.900Z,10.33
2017-03-20T06:33:22.727Z,10.33
2017-03-20T06:34:03.382Z,10.31
2017-03-20T06:34:44.140Z,10.26
2017-03-20T06:35:24.733Z,10.3
2017-03-20T06:36:05.387Z,10.3
2017-03-20T06:36:46.148Z,10.37
2017-03-20T06:37:26.785Z,10.33
2017-03-20T06:38:07.488Z,10.34
2017-03-20T06:38:48.128Z,10.33
2017-03-20T06:39:28.846Z,10.23
2017-03-20T06:40:09.669Z,10.23
2017-03-20T06:40:50.322Z,10.28
2017-03-20T06:41:30.977Z,10.23
2017-03-20T06:42:11.730Z,10.26
2017-03-20T06:42:52.391Z,10.31
2017-03-20T06:44:29.771Z,10.48
2017-03-20T06:45:10.482Z,10.61
2017-03-20T06:45:51.111Z,10.78
2017-03-20T06:46:31.856Z,10.82
2017-03-20T06:47:12.538Z,10.86
2017-03-20T06:47:53.322Z,10.87
2017-03-20T06:48:33.954Z,11
2017-03-20T06:49:14.729Z,11.1
2017-03-20T06:49:55.445Z,11.1
2017-03-20T06:50:36.122Z,11.14
2017-03-20T06:51:16.736Z,11.25
2017-03-20T06:51:57.510Z,11.19
2017-03-20T06:52:38.158Z,11.3
2017-03-20T06:53:18.773Z,11.37
2017-03-20T06:53:59.464Z,11.37
2017-03-20T06:54:40.116Z,11.47
2017-03-20T06:55:20.797Z,11.54
2017-03-20T06:56:01.487Z,11.57
2017-03-20T06:56:42.154Z,11.6
2017-03-20T06:57:22.731Z,11.59
2017-03-20T06:58:03.326Z,11.62
2017-03-20T06:58:44.059Z,11.63
2017-03-20T06:59:24.652Z,11.54
2017-03-20T07:00:05.449Z,11.51
2017-03-20T07:00:46.106Z,11.69
2017-03-20T07:01:26.824Z,11.6
2017-03-20T07:02:07.470Z,11.63
2017-03-20T07:02:48.202Z,11.66
2017-03-20T07:03:28.936Z,11.72
2017-03-20T07:04:09.623Z,11.73
2017-03-20T07:04:50.402Z,11.83
2017-03-20T07:05:31.028Z,11.81
2017-03-20T07:06:11.858Z,11.9
2017-03-20T07:06:52.517Z,11.91
2017-03-20T07:07:33.358Z,11.91
2017-03-20T07:08:14.012Z,11.9
2017-03-20T07:08:54.712Z,11.99
2017-03-20T07:09:35.448Z,12.02
2017-03-20T07:10:16.065Z,11.94
2017-03-20T07:10:56.752Z,11.8
2017-03-20T07:11:37.521Z,11.7
2017-03-20T07:12:18.282Z,11.62
2017-03-20T07:12:58.895Z,11.62
2017-03-20T07:13:39.514Z,11.6
2017-03-20T07:14:20.238Z,11.47
2017-03-20T07:15:00.928Z,11.35
2017-03-20T07:15:41.623Z,11.4
2017-03-20T07:16:22.377Z,11.3
2017-03-20T07:17:03.052Z,11.19
2017-03-20T07:17:43.792Z,11.1
2017-03-20T07:18:24.582Z,11.02
2017-03-20T07:19:05.253Z,11.04
2017-03-20T07:19:45.990Z,11
2017-03-20T07:20:26.769Z,10.93
2017-03-20T07:21:07.573Z,10.93
2017-03-20T07:21:48.291Z,10.99
2017-03-20T07:22:28.953Z,10.96
2017-03-20T07:23:09.582Z,10.97
2017-03-20T07:23:50.435Z,10.82
2017-03-20T07:24:31.094Z,10.94
2017-03-20T07:25:11.794Z,10.87
2017-03-20T07:25:52.390Z,10.87
2017-03-20T07:26:33.213Z,10.82
2017-03-20T07:27:13.861Z,10.75
2017-03-20T07:27:54.559Z,10.75
2017-03-20T07:28:35.277Z,10.76
2017-03-20T07:29:15.939Z,10.74
2017-03-20T07:29:56.514Z,10.78
2017-03-20T07:30:37.172Z,10.76
2017-03-20T07:31:17.930Z,10.71
2017-03-20T07:31:58.553Z,10.72
2017-03-20T07:32:39.242Z,10.76
2017-03-20T07:33:19.892Z,10.71
2017-03-20T07:34:00.675Z,10.63
2017-03-20T07:34:41.396Z,10.71
2017-03-20T07:35:22.150Z,10.75
2017-03-20T07:36:02.907Z,10.72
2017-03-20T07:36:43.988Z,10.74
2017-03-20T07:37:24.569Z,10.68
2017-03-20T07:39:17.558Z,10.69
2017-03-20T07:39:58.239Z,10.59
2017-03-20T07:40:39.074Z,10.72
2017-03-20T07:41:20.029Z,10.57
2017-03-20T07:42:01.232Z,10.67
2017-03-20T07:42:42.323Z,10.63
2017-03-20T07:43:23.814Z,10.72
2017-03-20T07:44:04.646Z,10.72
2017-03-20T07:44:45.622Z,10.63
2017-03-20T07:45:26.561Z,10.71
2017-03-20T07:46:07.375Z,10.72
2017-03-20T07:46:48.128Z,10.69
2017-03-20T07:47:29.044Z,10.68
2017-03-20T07:48:09.935Z,10.61
2017-03-20T07:48:50.779Z,10.61
2017-03-20T07:49:31.749Z,10.67
2017-03-20T07:50:13.275Z,10.59
2017-03-20T07:50:54.050Z,10.63
2017-03-20T07:51:34.882Z,10.67
2017-03-20T07:52:15.649Z,10.61
2017-03-20T07:52:56.288Z,10.69
2017-03-20T07:53:37.035Z,10.71
2017-03-20T07:54:17.758Z,10.63
2017-03-20T07:54:58.634Z,10.69
2017-03-20T07:55:39.277Z,10.68
2017-03-20T07:56:20.196Z,10.57
2017-03-20T07:57:00.831Z,10.71
2017-03-20T07:57:41.678Z,10.72
2017-03-20T07:58:22.305Z,10.72
2017-03-20T07:59:02.953Z,10.72
2017-03-20T07:59:44.024Z,10.67
2017-03-20T08:00:24.564Z,10.68
2017-03-20T08:01:07.787Z,10.71
2017-03-20T08:01:48.435Z,10.71
2017-03-20T08:02:29.100Z,10.71
2017-03-20T08:03:09.887Z,10.69
2017-03-20T08:03:50.537Z,10.69
2017-03-20T08:04:31.216Z,10.68
2017-03-20T08:05:11.997Z,10.72
2017-03-20T08:05:52.784Z,10.72
2017-03-20T08:06:33.537Z,10.72
2017-03-20T08:07:14.278Z,10.75
2017-03-20T08:07:55.002Z,10.76
2017-03-20T08:08:35.644Z,10.71
2017-03-20T08:09:16.305Z,10.71
2017-03-20T08:09:57.204Z,10.74
2017-03-20T08:10:39.878Z,10.74
2017-03-20T08:11:20.525Z,10.81
2017-03-20T08:12:01.184Z,10.72
2017-03-20T08:12:41.856Z,10.72
2017-03-20T08:13:22.557Z,10.72
2017-03-20T08:14:03.269Z,10.69
2017-03-20T08:14:43.925Z,10.74
2017-03-20T08:15:24.982Z,10.75
2017-03-20T08:16:05.754Z,10.71
2017-03-20T08:16:46.401Z,10.71
2017-03-20T08:17:27.154Z,10.75
2017-03-20T08:18:09.130Z,10.75
2017-03-20T08:18:49.841Z,10.71
2017-03-20T08:19:30.894Z,10.76
2017-03-20T08:20:11.908Z,10.72
2017-03-20T08:20:52.640Z,10.75
2017-03-20T08:21:33.412Z,10.72
2017-03-20T08:22:14.341Z,10.75
2017-03-20T08:22:55.293Z,10.78
2017-03-20T08:23:35.906Z,10.79
2017-03-20T08:24:16.652Z,10.81
2017-03-20T08:24:57.257Z,10.76
2017-03-20T08:25:37.980Z,10.74
2017-03-20T08:26:18.686Z,10.79
2017-03-20T08:26:59.438Z,10.76
2017-03-20T08:27:40.121Z,10.76
2017-03-20T08:28:20.838Z,10.82
2017-03-20T08:29:01.503Z,10.81
2017-03-20T08:29:42.168Z,10.75
2017-03-20T08:30:22.850Z,10.89
2017-03-20T08:31:03.603Z,10.78
2017-03-20T08:31:44.287Z,10.86
2017-03-20T08:32:24.935Z,10.82
2017-03-20T08:33:05.752Z,10.75
2017-03-20T08:33:46.594Z,10.76
2017-03-20T08:34:27.344Z,10.86
2017-03-20T08:35:08.057Z,10.82
2017-03-20T08:35:48.829Z,10.79
2017-03-20T08:36:29.614Z,10.87
2017-03-20T08:37:10.277Z,10.87
2017-03-20T08:37:50.980Z,10.87
2017-03-20T08:38:31.714Z,10.87
2017-03-20T08:39:12.466Z,10.9
2017-03-20T08:39:53.103Z,10.84
2017-03-20T08:40:33.792Z,10.92
2017-03-20T08:41:14.655Z,10.9
2017-03-20T08:41:55.350Z,10.99
2017-03-20T08:42:36.071Z,11.04
2017-03-20T08:43:16.855Z,10.97
2017-03-20T08:43:57.736Z,10.94
2017-03-20T08:44:39.186Z,10.9
2017-03-20T08:45:19.920Z,10.99
2017-03-20T08:46:00.706Z,10.9
2017-03-20T08:46:41.436Z,10.9
2017-03-20T08:47:22.359Z,11.02
2017-03-20T08:48:03.169Z,10.86
2017-03-20T08:48:43.899Z,10.9
2017-03-20T08:49:24.751Z,10.93
2017-03-20T08:50:05.457Z,10.93